Latest Coastal Weather Observations for Edithburgh

IDS60701

Issued at 2:31 am CST Saturday 2 July 2016 (issued every 10 minutes, with the page automatically refreshed every 10 minutes)

About coastal observations | Map of coastal stations | Coastal observations for SA | Marine services | Other Formats
Station Details ID: 022046 Name: EDITHBURGH Lat: -35.11 Lon: 137.74 Height: 6.0 m
Data from the previous 72 hours. | See also: Recent months at Edithburgh
Date/Time
CST
Temp
°C
Wind Pressure Rain since
9am
mm
Weather Cloud Vis
km
Sea
Height
m
Swell
Dir  Spd
kts
Gust
kts
hPa Trend Height
m
Period
s
Dir
02/02:30am 9.6 NW 5 5 1027.5 - 0.4 - - - - - - -
02/02:00am 10.5 NW 5 6 1027.6 - 0.4 - - - - - - -
02/01:30am 9.5 NW 6 6 1027.6 - 0.4 - - - - - - -
02/01:00am 9.3 NW 5 6 1027.8 - 0.4 - - - - - - -
02/12:30am 10.6 NW 8 9 1027.7 - 0.4 - - - - - - -
02/12:00am 11.5 NW 11 14 1027.8 - 0.4 - - - - - - -
 
Date/Time
CST
Temp
°C
Wind Pressure Rain since
9am
mm
Weather Cloud Vis
km
Sea
Height
m
Swell
Dir  Spd
kts
Gust
kts
hPa Trend Height
m
Period
s
Dir
01/11:30pm 11.6 NW 8 11 1028.1 - 0.4 - - - - - - -
01/11:00pm 11.4 NW 9 11 1028.1 - 0.4 - - - - - - -
01/10:30pm 9.8 NW 4 5 1028.2 - 0.4 - - - - - - -
01/10:00pm 10.6 W 4 5 1027.9 - 0.4 - - - - - - -
01/09:30pm 11.0 NW 6 7 1028.1 - 0.4 - - - - - - -
01/09:00pm 10.9 WNW 4 5 1028.0 - 0.4 - - - - - - -
01/08:30pm 11.0 NW 6 7 1027.8 - 0.4 - - - - - - -
01/08:00pm 11.5 NW 5 6 1027.7 - 0.4 - - - - - - -
01/07:30pm 11.4 WNW 5 7 1027.4 - 0.2 - - - - - - -
01/07:00pm 11.0 WNW 5 6 1027.0 - 0.0 - - - - - - -
01/06:30pm 11.5 NW 5 6 1026.6 - 0.0 - - - - - - -
01/06:00pm 12.1 WNW 5 7 1026.4 - 0.0 - - - - - - -
01/05:30pm 12.4 WNW 10 12 1026.1 - 0.0 - - - - - - -
01/05:00pm 13.3 NW 6 7 1026.0 - 0.0 - - - - - - -
01/04:30pm 13.6 NW 7 9 1025.8 - 0.0 - - - - - - -
01/04:00pm 13.8 WNW 6 7 1025.6 - 0.0 - - - - - - -
01/03:30pm 13.3 W 6 11 1025.5 - 0.0 - - - - - - -
01/03:00pm 13.6 WNW 10 14 1025.6 - 0.0 - - - - - - -
01/02:30pm 13.4 WSW 7 11 1025.4 - 0.0 - - - - - - -
01/02:00pm 13.9 W 6 10 1025.3 - 0.0 - - - - - - -
01/01:30pm 14.6 W 8 10 1025.3 - 0.0 - - - - - - -
01/01:00pm 14.7 W 8 13 1025.6 - 0.0 - - - - - - -
01/12:30pm 15.1 W 10 14 1025.8 - 0.0 - - - - - - -
01/12:00pm 14.9 WNW 9 13 1025.8 - 0.0 - - - - - - -
01/11:30am 13.9 WNW 10 13 1026.2 - 0.0 - - - - - - -
01/11:00am 13.5 W 4 6 1026.3 - 0.0 - - - - - - -
01/10:30am 12.7 W 4 6 1026.5 - 0.0 - - - - - - -
01/10:00am 11.9 WNW 5 7 1026.2 - 0.0 - - - - - - -
01/09:30am 11.4 WNW 5 7 1025.8 - 0.0 - - - - - - -
01/09:00am 10.8 WNW 5 7 1025.8 - 0.4 - - - - - - -
01/08:30am 9.8 NW 5 7 1025.3 - 0.4 - - - - - - -
01/08:00am 9.4 NW 5 7 1025.0 - 0.4 - - - - - - -
01/07:30am 9.6 WNW 5 6 1024.7 - 0.4 - - - - - - -
01/07:00am 10.2 W 5 8 1024.3 - 0.4 - - - - - - -
01/06:30am 9.5 WNW 6 8 1023.9 - 0.4 - - - - - - -
01/06:00am 9.7 WNW 6 8 1023.5 - 0.4 Recent precip. - - - - - -
01/05:30am 8.1 NW 5 7 1023.3 - 0.4 - - - - - - -
01/05:00am 9.2 WNW 5 7 1022.9 - 0.2 - - - - - - -
01/04:30am 8.8 WNW 6 7 1022.6 - 0.2 - - - - - - -
01/04:00am 9.0 WNW 6 8 1022.3 - 0.2 - - - - - - -
01/03:30am 10.1 W 5 6 1022.2 - 0.2 - - - - - - -
01/03:00am 9.7 WSW 4 7 1022.2 - 0.2 - - - - - - -
01/02:30am 9.9 WNW 9 14 1022.0 - 0.2 - - - - - - -
01/02:00am 7.4 NW 7 8 1022.0 - 0.2 - - - - - - -
01/01:30am 8.4 WNW 4 5 1021.8 - 0.2 - - - - - - -
01/01:00am 7.7 WNW 5 9 1021.8 - 0.2 - - - - - - -
01/12:30am 7.0 NW 6 7 1021.5 - 0.2 - - - - - - -
01/12:00am 8.5 WNW 6 7 1021.4 - 0.2 - - - - - - -
 
Date/Time
CST
Temp
°C
Wind Pressure Rain since
9am
mm
Weather Cloud Vis
km
Sea
Height
m
Swell
Dir  Spd
kts
Gust
kts
hPa Trend Height
m
Period
s
Dir
30/11:30pm 10.1 WSW 6 10 1021.3 - 0.2 - - - - - - -
30/11:00pm 10.2 WSW 7 13 1021.0 - 0.2 - - - - - - -
30/10:30pm 10.3 SW 7 9 1020.9 - 0.2 - - - - - - -
30/10:00pm 10.4 SW 7 10 1020.6 - 0.2 - - - - - - -
30/09:30pm 11.0 SW 9 13 1020.3 - 0.2 - - - - - - -
30/09:00pm 10.9 WSW 5 8 1020.0 - 0.2 - - - - - - -
30/08:30pm 11.5 SW 10 15 1019.6 - 0.2 - - - - - - -
30/08:00pm 11.0 SW 10 16 1019.3 - 0.2 - - - - - - -
30/07:30pm 11.3 SW 12 19 1018.8 - 0.2 - - - - - - -
30/07:00pm 10.9 WSW 12 17 1018.4 - 0.2 - - - - - - -
30/06:30pm 11.3 WSW 14 19 1018.0 - 0.2 - - - - - - -
30/06:00pm 11.0 WSW 10 18 1017.4 - 0.2 - - - - - - -
30/05:30pm 11.8 SW 14 22 1016.9 - 0.2 - - - - - - -
30/05:00pm 11.9 WSW 10 16 1016.5 - 0.2 - - - - - - -
30/04:30pm 12.0 SW 14 21 1016.1 - 0.2 - - - - - - -
30/04:00pm 12.8 WSW 15 24 1015.6 - 0.2 - - - - - - -
30/03:30pm 13.5 WSW 15 24 1015.2 - 0.2 - - - - - - -
30/03:00pm 12.7 WSW 13 20 1014.8 - 0.2 - - - - - - -
30/02:30pm 12.4 WSW 14 20 1014.5 - 0.2 - - - - - - -
30/02:15pm 12.9 WSW 15 25 1014.3 - 0.2 - - - - - - -
30/02:00pm 12.3 WSW 15 20 1014.2 - 0.2 - - - - - - -
30/01:41pm 12.9 WSW 20 33 1014.1 - 0.0 - - - - - - -
30/01:30pm 14.3 WSW 21 29 1013.9 - 0.0 - - - - - - -
30/01:14pm 14.7 WSW 16 26 1013.6 - 0.0 - - - - - - -
30/01:00pm 14.6 WSW 19 27 1013.6 - 0.0 - - - - - - -
30/12:46pm 14.1 WSW 21 31 1013.8 - 0.0 - - - - - - -
30/12:30pm 14.7 WSW 22 30 1013.5 - 0.0 - - - - - - -
30/12:00pm 13.9 WSW 19 27 1013.5 - 0.0 - - - - - - -
30/11:30am 14.0 WSW 19 26 1013.4 - 0.0 - - - - - - -
30/11:00am 14.8 W 18 27 1013.0 - 0.0 - - - - - - -
30/10:30am 13.6 W 16 24 1013.1 - 0.0 - - - - - - -
30/10:00am 13.0 WSW 18 31 1013.0 - 0.0 - - - - - - -
30/09:57am 14.2 W 17 31 1012.8 - 0.0 - - - - - - -
30/09:30am 12.9 W 15 20 1012.4 - 0.0 - - - - - - -
30/09:00am 11.8 WNW 12 15 1011.8 - 2.4 Recent precip. - - - - - -
30/08:30am 12.2 WNW 14 18 1011.7 - 2.4 - - - - - - -
30/08:00am 12.5 NW 10 13 1011.3 - 1.6 - - - - - - -
30/07:30am 12.3 NW 13 16 1010.9 - 1.6 - - - - - - -
30/07:00am 12.3 NW 13 18 1010.6 - 1.6 - - - - - - -
30/06:30am 12.7 NW 16 22 1010.2 - 1.4 - - - - - - -
30/06:00am 12.5 NW 13 17 1010.0 - 1.4 Rain - - - - - -
30/05:30am 12.5 NNW 14 19 1009.9 - 1.0 - - - - - - -
30/05:00am 12.0 NNW 14 19 1010.0 - 0.6 - - - - - - -
30/04:30am 10.6 N 9 11 1010.1 - 0.6 - - - - - - -
30/04:00am 10.7 NNW 14 18 1010.1 - 0.6 - - - - - - -
30/03:30am 11.4 NNW 14 18 1010.4 - 0.6 - - - - - - -
30/03:00am 11.3 NNW 13 18 1010.7 - 0.6 - - - - - - -
30/02:30am 11.5 NNW 19 23 1010.9 - 0.6 - - - - - - -
30/02:00am 11.1 NNW 16 20 1011.4 - 0.6 - - - - - - -
30/01:30am 11.5 NNW 18 25 1011.1 - 0.2 - - - - - - -
30/01:00am 12.0 NNW 13 17 1012.1 - 0.0 - - - - - - -
30/12:30am 12.0 NNW 16 22 1012.6 - 0.0 - - - - - - -
30/12:00am 11.7 N 10 14 1012.6 - 0.0 - - - - - - -
 
Date/Time
CST
Temp
°C
Wind Pressure Rain since
9am
mm
Weather Cloud Vis
km
Sea
Height
m
Swell
Dir  Spd
kts
Gust
kts
hPa Trend Height
m
Period
s
Dir
29/11:30pm 10.3 N 8 13 1013.0 - 0.0 - - - - - - -
29/11:00pm 10.3 N 12 17 1012.9 - 0.0 - - - - - - -
29/10:30pm 10.3 N 11 15 1013.3 - 0.0 - - - - - - -
29/10:00pm 10.7 N 12 19 1013.5 - 0.0 - - - - - - -
29/09:30pm 10.8 N 12 18 1013.6 - 0.0 - - - - - - -
29/09:00pm 11.1 N 12 17 1014.1 - 0.0 - - - - - - -
29/08:30pm 11.4 N 14 21 1014.5 - 0.0 - - - - - - -
29/08:00pm 11.6 N 13 21 1014.9 - 0.0 - - - - - - -
29/07:30pm 12.0 N 15 21 1015.2 - 0.0 - - - - - - -
29/07:00pm 11.9 N 14 22 1015.1 - 0.0 - - - - - - -
29/06:30pm 12.0 N 14 21 1015.1 - 0.0 - - - - - - -
29/06:00pm 12.1 N 13 18 1015.4 - 0.0 - - - - - - -
29/05:30pm 12.1 N 12 19 1015.5 - 0.0 - - - - - - -
29/05:00pm 12.3 N 14 21 1015.8 - 0.0 - - - - - - -
29/04:30pm 13.2 N 15 24 1016.0 - 0.0 - - - - - - -
29/04:00pm 13.5 N 19 26 1016.0 - 0.0 - - - - - - -
29/03:34pm 13.8 N 19 30 1016.2 - 0.0 - - - - - - -
29/03:30pm 13.8 N 21 30 1016.2 - 0.0 - - - - - - -
29/03:02pm 14.1 N 21 31 1016.4 - 0.0 - - - - - - -
29/03:00pm 14.0 N 22 31 1016.4 - 0.0 - - - - - - -
29/02:30pm 14.2 N 20 29 1016.9 - 0.0 - - - - - - -
29/02:21pm 14.4 N 17 27 1016.9 - 0.0 - - - - - - -
29/02:00pm 14.5 N 21 27 1017.2 - 0.0 - - - - - - -
29/01:30pm 13.9 N 22 31 1017.7 - 0.0 - - - - - - -
29/01:18pm 13.6 N 18 28 1018.1 - 0.0 - - - - - - -
29/01:00pm 12.9 N 20 25 1018.5 - 0.0 - - - - - - -
29/12:30pm 12.3 N 11 16 1019.4 - 0.0 - - - - - - -
29/12:00pm 12.1 NNE 12 18 1020.2 - 0.0 - - - - - - -
29/11:30am 11.9 N 11 16 1021.3 - 0.0 - - - - - - -
29/11:00am 11.7 N 12 19 1021.8 - 0.0 - - - - - - -
29/10:30am 11.7 N 13 20 1022.3 - 0.0 - - - - - - -
29/10:00am 11.2 N 12 19 1022.7 - 0.0 - - - - - - -
29/09:30am 10.7 N 11 16 1023.0 - 0.0 - - - - - - -
29/09:00am 10.7 N 10 15 1023.1 - 0.0 - - - - - - -
29/08:30am 10.4 N 10 13 1023.2 - 0.0 - - - - - - -
29/08:00am 9.9 N 10 15 1023.4 - 0.0 - - - - - - -
29/07:30am 9.8 N 9 13 1023.5 - 0.0 - - - - - - -
29/07:00am 9.3 N 9 12 1023.5 - 0.0 - - - - - - -
29/06:30am 9.1 N 9 13 1023.5 - 0.0 - - - - - - -
29/06:00am 8.8 N 9 12 1023.6 - 0.0 - - - - - - -
29/05:30am 8.3 N 7 11 1023.6 - 0.0 - - - - - - -
29/05:00am 8.2 N 7 10 1023.5 - 0.0 - - - - - - -
29/04:30am 8.2 N 7 9 1023.8 - 0.0 - - - - - - -
29/04:00am 7.2 N 7 9 1023.7 - 0.0 - - - - - - -
29/03:30am 5.8 N 7 8 1023.8 - 0.0 - - - - - - -
29/03:00am 6.0 NNW 7 8 1023.9 - 0.0 - - - - - - -

Other Formats:

Comma delimited format used in spreadsheet applications
http://www.bom.gov.au/fwo/IDS60701/IDS60701.94809.axf

JavaScript Object Notation format (JSON) in row-major order
http://www.bom.gov.au/fwo/IDS60701/IDS60701.94809.json